sensor_id;sensor_type;location;lat;lon;timestamp;pressure;altitude;pressure_sealevel;temperature;humidity
18500;BME280;9379;52.134;11.576;2023-03-19T00:00:18;100622.50;;;13.00;86.68
18500;BME280;9379;52.134;11.576;2023-03-19T00:02:45;100621.47;;;12.83;87.62
18500;BME280;9379;52.134;11.576;2023-03-19T00:05:18;100620.91;;;13.07;86.44
18500;BME280;9379;52.134;11.576;2023-03-19T00:07:45;100631.47;;;13.26;85.41
18500;BME280;9379;52.134;11.576;2023-03-19T00:10:12;100627.38;;;12.87;87.73
18500;BME280;9379;52.134;11.576;2023-03-19T00:12:39;100628.69;;;13.00;87.11
18500;BME280;9379;52.134;11.576;2023-03-19T00:15:06;100629.69;;;13.17;86.51
18500;BME280;9379;52.134;11.576;2023-03-19T00:17:39;100628.16;;;13.14;86.89
18500;BME280;9379;52.134;11.576;2023-03-19T00:20:08;100645.84;;;13.15;86.59
18500;BME280;9379;52.134;11.576;2023-03-19T00:22:35;100648.41;;;13.07;85.56
18500;BME280;9379;52.134;11.576;2023-03-19T00:25:02;100676.31;;;12.21;91.57
18500;BME280;9379;52.134;11.576;2023-03-19T00:27:29;100676.25;;;12.77;90.89
18500;BME280;9379;52.134;11.576;2023-03-19T00:29:56;100676.19;;;13.14;89.88
18500;BME280;9379;52.134;11.576;2023-03-19T00:32:22;100679.09;;;13.66;87.82
18500;BME280;9379;52.134;11.576;2023-03-19T00:34:51;100654.94;;;13.76;87.00
18500;BME280;9379;52.134;11.576;2023-03-19T00:37:17;100667.03;;;14.06;86.22
18500;BME280;9379;52.134;11.576;2023-03-19T00:39:44;100659.00;;;14.24;85.31
18500;BME280;9379;52.134;11.576;2023-03-19T00:42:11;100654.19;;;14.10;85.89
18500;BME280;9379;52.134;11.576;2023-03-19T00:44:38;100645.50;;;13.82;86.82
18500;BME280;9379;52.134;11.576;2023-03-19T00:47:05;100654.25;;;13.92;87.10
18500;BME280;9379;52.134;11.576;2023-03-19T00:49:33;100642.91;;;13.72;87.97
18500;BME280;9379;52.134;11.576;2023-03-19T00:52:01;100656.41;;;14.14;86.01
18500;BME280;9379;52.134;11.576;2023-03-19T00:54:27;100643.59;;;14.00;85.95
18500;BME280;9379;52.134;11.576;2023-03-19T00:56:56;100637.25;;;13.75;87.53
18500;BME280;9379;52.134;11.576;2023-03-19T00:59:23;100667.41;;;14.11;86.12
18500;BME280;9379;52.134;11.576;2023-03-19T01:01:50;100681.09;;;14.34;84.88
18500;BME280;9379;52.134;11.576;2023-03-19T01:04:17;100685.31;;;14.37;84.70
18500;BME280;9379;52.134;11.576;2023-03-19T01:06:44;100687.34;;;13.99;86.33
18500;BME280;9379;52.134;11.576;2023-03-19T01:09:13;100677.38;;;13.30;90.06
18500;BME280;9379;52.134;11.576;2023-03-19T01:11:40;100675.44;;;13.32;90.73
18500;BME280;9379;52.134;11.576;2023-03-19T01:14:07;100658.34;;;12.97;92.51
18500;BME280;9379;52.134;11.576;2023-03-19T01:16:34;100662.53;;;13.18;91.10
18500;BME280;9379;52.134;11.576;2023-03-19T01:19:01;100663.13;;;13.21;90.91
18500;BME280;9379;52.134;11.576;2023-03-19T01:21:28;100651.69;;;13.01;91.89
18500;BME280;9379;52.134;11.576;2023-03-19T01:23:56;100652.94;;;12.79;93.29
18500;BME280;9379;52.134;11.576;2023-03-19T01:26:24;100648.59;;;12.78;93.40
18500;BME280;9379;52.134;11.576;2023-03-19T01:28:51;100651.88;;;13.45;90.29
18500;BME280;9379;52.134;11.576;2023-03-19T01:31:18;100656.09;;;13.73;88.80
18500;BME280;9379;52.134;11.576;2023-03-19T01:33:46;100648.25;;;13.36;89.02
18500;BME280;9379;52.134;11.576;2023-03-19T01:36:13;100653.44;;;13.20;90.67
18500;BME280;9379;52.134;11.576;2023-03-19T01:38:39;100658.66;;;13.57;89.75
18500;BME280;9379;52.134;11.576;2023-03-19T01:41:06;100667.81;;;13.98;87.35
18500;BME280;9379;52.134;11.576;2023-03-19T01:43:35;100666.16;;;14.23;86.31
18500;BME280;9379;52.134;11.576;2023-03-19T01:46:05;100668.97;;;14.22;85.89
18500;BME280;9379;52.134;11.576;2023-03-19T01:48:37;100673.06;;;14.34;85.43
18500;BME280;9379;52.134;11.576;2023-03-19T01:51:06;100650.81;;;14.51;84.55
18500;BME280;9379;52.134;11.576;2023-03-19T01:53:36;100643.53;;;14.36;84.82
18500;BME280;9379;52.134;11.576;2023-03-19T01:56:08;100652.22;;;13.50;89.25
18500;BME280;9379;52.134;11.576;2023-03-19T01:58:39;100641.97;;;12.82;92.74
18500;BME280;9379;52.134;11.576;2023-03-19T02:01:07;100636.59;;;12.65;94.20
18500;BME280;9379;52.134;11.576;2023-03-19T02:03:36;100645.09;;;12.78;94.17
18500;BME280;9379;52.134;11.576;2023-03-19T02:06:04;100640.09;;;13.20;91.69
18500;BME280;9379;52.134;11.576;2023-03-19T02:08:32;100647.16;;;12.84;94.09
18500;BME280;9379;52.134;11.576;2023-03-19T02:10:59;100648.16;;;12.83;94.39
18500;BME280;9379;52.134;11.576;2023-03-19T02:13:26;100645.28;;;13.22;92.43
18500;BME280;9379;52.134;11.576;2023-03-19T02:15:55;100638.31;;;13.64;90.21
18500;BME280;9379;52.134;11.576;2023-03-19T02:18:23;100634.97;;;13.62;90.23
18500;BME280;9379;52.134;11.576;2023-03-19T02:20:56;100640.91;;;13.92;88.09
18500;BME280;9379;52.134;11.576;2023-03-19T02:23:31;100655.53;;;13.17;92.58
18500;BME280;9379;52.134;11.576;2023-03-19T02:26:06;100642.22;;;13.70;90.15
18500;BME280;9379;52.134;11.576;2023-03-19T02:28:35;100655.34;;;13.28;92.29
18500;BME280;9379;52.134;11.576;2023-03-19T02:31:04;100650.44;;;12.78;94.97
18500;BME280;9379;52.134;11.576;2023-03-19T02:33:31;100661.25;;;12.76;95.47
18500;BME280;9379;52.134;11.576;2023-03-19T02:35:58;100677.41;;;12.75;95.94
18500;BME280;9379;52.134;11.576;2023-03-19T02:38:26;100673.00;;;12.46;97.06
18500;BME280;9379;52.134;11.576;2023-03-19T02:40:55;100662.19;;;12.85;95.85
18500;BME280;9379;52.134;11.576;2023-03-19T02:43:25;100645.66;;;13.27;94.45
18500;BME280;9379;52.134;11.576;2023-03-19T02:45:52;100647.41;;;13.71;92.30
18500;BME280;9379;52.134;11.576;2023-03-19T02:48:19;100629.19;;;13.49;93.86
18500;BME280;9379;52.134;11.576;2023-03-19T02:50:46;100620.72;;;13.54;93.68
18500;BME280;9379;52.134;11.576;2023-03-19T02:53:12;100627.25;;;12.78;98.57
18500;BME280;9379;52.134;11.576;2023-03-19T02:55:40;100659.75;;;12.27;100.00
18500;BME280;9379;52.134;11.576;2023-03-19T02:58:07;100651.28;;;12.96;100.00
18500;BME280;9379;52.134;11.576;2023-03-19T03:00:39;100621.94;;;12.96;99.37
18500;BME280;9379;52.134;11.576;2023-03-19T03:03:06;100634.50;;;13.13;99.37
18500;BME280;9379;52.134;11.576;2023-03-19T03:05:34;100634.06;;;12.91;100.00
18500;BME280;9379;52.134;11.576;2023-03-19T03:08:01;100641.91;;;12.37;100.00
18500;BME280;9379;52.134;11.576;2023-03-19T03:10:29;100639.00;;;12.58;100.00
18500;BME280;9379;52.134;11.576;2023-03-19T03:12:56;100636.13;;;13.24;100.00
18500;BME280;9379;52.134;11.576;2023-03-19T03:15:23;100645.69;;;12.99;100.00
18500;BME280;9379;52.134;11.576;2023-03-19T03:17:52;100651.22;;;12.88;100.00
18500;BME280;9379;52.134;11.576;2023-03-19T03:20:20;100658.25;;;13.52;99.35
18500;BME280;9379;52.134;11.576;2023-03-19T03:22:47;100657.41;;;13.69;97.17
18500;BME280;9379;52.134;11.576;2023-03-19T03:25:14;100650.25;;;13.52;98.34
18500;BME280;9379;52.134;11.576;2023-03-19T03:27:41;100649.25;;;13.53;98.48
18500;BME280;9379;52.134;11.576;2023-03-19T03:30:10;100646.41;;;13.90;95.90
18500;BME280;9379;52.134;11.576;2023-03-19T03:32:38;100651.69;;;13.64;97.32
18500;BME280;9379;52.134;11.576;2023-03-19T03:35:07;100666.44;;;13.33;99.58
18500;BME280;9379;52.134;11.576;2023-03-19T03:37:35;100677.28;;;12.94;100.00
18500;BME280;9379;52.134;11.576;2023-03-19T03:40:03;100674.06;;;13.18;100.00
18500;BME280;9379;52.134;11.576;2023-03-19T03:42:32;100684.63;;;12.55;100.00
18500;BME280;9379;52.134;11.576;2023-03-19T03:45:00;100683.25;;;12.51;100.00
18500;BME280;9379;52.134;11.576;2023-03-19T03:47:27;100675.56;;;13.03;100.00
18500;BME280;9379;52.134;11.576;2023-03-19T03:49:54;100683.69;;;12.37;100.00
18500;BME280;9379;52.134;11.576;2023-03-19T03:52:22;100687.00;;;12.11;100.00
18500;BME280;9379;52.134;11.576;2023-03-19T03:54:49;100684.94;;;11.86;100.00
18500;BME280;9379;52.134;11.576;2023-03-19T03:57:15;100688.44;;;11.86;100.00
18500;BME280;9379;52.134;11.576;2023-03-19T03:59:42;100692.47;;;11.90;100.00
18500;BME280;9379;52.134;11.576;2023-03-19T04:02:09;100691.34;;;12.12;100.00
18500;BME280;9379;52.134;11.576;2023-03-19T04:04:36;100701.94;;;12.41;100.00
18500;BME280;9379;52.134;11.576;2023-03-19T04:07:03;100700.78;;;12.53;100.00
18500;BME280;9379;52.134;11.576;2023-03-19T04:09:32;100715.59;;;13.03;100.00
18500;BME280;9379;52.134;11.576;2023-03-19T04:11:59;100720.47;;;12.80;100.00
18500;BME280;9379;52.134;11.576;2023-03-19T04:14:26;100713.53;;;12.97;100.00
18500;BME280;9379;52.134;11.576;2023-03-19T04:16:53;100711.59;;;12.52;100.00
18500;BME280;9379;52.134;11.576;2023-03-19T04:19:20;100711.00;;;12.58;100.00
18500;BME280;9379;52.134;11.576;2023-03-19T04:21:47;100715.16;;;12.14;100.00
18500;BME280;9379;52.134;11.576;2023-03-19T04:24:14;100706.00;;;12.36;100.00
18500;BME280;9379;52.134;11.576;2023-03-19T04:26:42;100703.84;;;12.59;100.00
18500;BME280;9379;52.134;11.576;2023-03-19T04:29:11;100701.75;;;12.62;100.00
18500;BME280;9379;52.134;11.576;2023-03-19T04:31:38;100682.13;;;12.81;100.00
18500;BME280;9379;52.134;11.576;2023-03-19T04:34:05;100686.94;;;12.40;100.00
18500;BME280;9379;52.134;11.576;2023-03-19T04:36:31;100680.41;;;12.62;100.00
18500;BME280;9379;52.134;11.576;2023-03-19T04:38:58;100663.16;;;12.56;100.00
18500;BME280;9379;52.134;11.576;2023-03-19T04:41:25;100661.28;;;12.67;100.00
18500;BME280;9379;52.134;11.576;2023-03-19T04:43:53;100660.19;;;13.14;100.00
18500;BME280;9379;52.134;11.576;2023-03-19T04:46:20;100651.22;;;12.88;100.00
18500;BME280;9379;52.134;11.576;2023-03-19T04:48:47;100676.47;;;12.19;100.00
18500;BME280;9379;52.134;11.576;2023-03-19T04:51:15;100638.13;;;11.83;100.00
18500;BME280;9379;52.134;11.576;2023-03-19T04:53:41;100619.75;;;11.61;100.00
18500;BME280;9379;52.134;11.576;2023-03-19T04:56:09;100605.22;;;12.21;100.00
18500;BME280;9379;52.134;11.576;2023-03-19T04:58:35;100627.34;;;12.59;100.00
18500;BME280;9379;52.134;11.576;2023-03-19T05:01:04;100628.84;;;12.71;100.00
18500;BME280;9379;52.134;11.576;2023-03-19T05:03:30;100637.22;;;13.04;100.00
18500;BME280;9379;52.134;11.576;2023-03-19T05:05:57;100638.59;;;13.35;100.00
18500;BME280;9379;52.134;11.576;2023-03-19T05:08:24;100650.13;;;12.81;100.00
18500;BME280;9379;52.134;11.576;2023-03-19T05:10:51;100669.03;;;13.15;100.00
18500;BME280;9379;52.134;11.576;2023-03-19T05:13:18;100671.66;;;13.42;100.00
18500;BME280;9379;52.134;11.576;2023-03-19T05:15:45;100684.16;;;12.69;100.00
18500;BME280;9379;52.134;11.576;2023-03-19T05:18:14;100680.59;;;12.78;100.00
18500;BME280;9379;52.134;11.576;2023-03-19T05:20:41;100662.97;;;13.40;100.00
18500;BME280;9379;52.134;11.576;2023-03-19T05:23:08;100672.66;;;13.24;100.00
18500;BME280;9379;52.134;11.576;2023-03-19T05:25:35;100662.06;;;13.50;100.00
18500;BME280;9379;52.134;11.576;2023-03-19T05:28:02;100668.03;;;13.43;100.00
18500;BME280;9379;52.134;11.576;2023-03-19T05:30:29;100666.53;;;13.85;100.00
18500;BME280;9379;52.134;11.576;2023-03-19T05:32:57;100680.06;;;13.83;99.68
18500;BME280;9379;52.134;11.576;2023-03-19T05:35:26;100680.22;;;13.28;100.00
18500;BME280;9379;52.134;11.576;2023-03-19T05:37:54;100670.25;;;13.48;100.00
18500;BME280;9379;52.134;11.576;2023-03-19T05:40:21;100682.69;;;13.57;100.00
18500;BME280;9379;52.134;11.576;2023-03-19T05:42:48;100686.50;;;13.55;100.00
18500;BME280;9379;52.134;11.576;2023-03-19T05:45:16;100682.72;;;13.65;100.00
18500;BME280;9379;52.134;11.576;2023-03-19T05:47:46;100673.59;;;13.68;100.00
18500;BME280;9379;52.134;11.576;2023-03-19T05:50:12;100687.16;;;13.75;100.00
18500;BME280;9379;52.134;11.576;2023-03-19T05:52:41;100684.25;;;13.86;98.63
18500;BME280;9379;52.134;11.576;2023-03-19T05:55:08;100686.59;;;14.07;97.20
18500;BME280;9379;52.134;11.576;2023-03-19T05:57:35;100681.25;;;14.07;95.94
18500;BME280;9379;52.134;11.576;2023-03-19T06:00:03;100693.56;;;13.64;98.42
18500;BME280;9379;52.134;11.576;2023-03-19T06:02:31;100698.09;;;13.46;100.00
18500;BME280;9379;52.134;11.576;2023-03-19T06:04:57;100694.50;;;13.55;99.85
18500;BME280;9379;52.134;11.576;2023-03-19T06:07:24;100697.94;;;13.83;98.57
18500;BME280;9379;52.134;11.576;2023-03-19T06:09:52;100700.84;;;13.71;98.20
18500;BME280;9379;52.134;11.576;2023-03-19T06:12:19;100715.06;;;12.99;100.00
18500;BME280;9379;52.134;11.576;2023-03-19T06:14:46;100722.09;;;12.63;100.00
18500;BME280;9379;52.134;11.576;2023-03-19T06:17:13;100723.19;;;12.61;100.00
18500;BME280;9379;52.134;11.576;2023-03-19T06:19:40;100721.94;;;12.65;100.00
18500;BME280;9379;52.134;11.576;2023-03-19T06:22:07;100716.03;;;12.98;100.00
18500;BME280;9379;52.134;11.576;2023-03-19T06:24:33;100718.16;;;12.57;100.00
18500;BME280;9379;52.134;11.576;2023-03-19T06:27:02;100717.81;;;12.23;100.00
18500;BME280;9379;52.134;11.576;2023-03-19T06:29:29;100726.00;;;12.96;100.00
18500;BME280;9379;52.134;11.576;2023-03-19T06:31:56;100722.56;;;13.13;100.00
18500;BME280;9379;52.134;11.576;2023-03-19T06:34:23;100722.28;;;12.79;100.00
18500;BME280;9379;52.134;11.576;2023-03-19T06:36:50;100716.69;;;12.73;100.00
18500;BME280;9379;52.134;11.576;2023-03-19T06:39:18;100728.94;;;12.66;100.00
18500;BME280;9379;52.134;11.576;2023-03-19T06:41:44;100727.78;;;12.78;100.00
18500;BME280;9379;52.134;11.576;2023-03-19T06:44:13;100736.25;;;13.28;100.00
18500;BME280;9379;52.134;11.576;2023-03-19T06:46:40;100733.22;;;13.13;100.00
18500;BME280;9379;52.134;11.576;2023-03-19T06:49:06;100737.38;;;12.98;100.00
18500;BME280;9379;52.134;11.576;2023-03-19T06:51:33;100733.25;;;12.76;100.00
18500;BME280;9379;52.134;11.576;2023-03-19T06:54:00;100748.56;;;13.11;100.00
18500;BME280;9379;52.134;11.576;2023-03-19T06:56:27;100753.44;;;12.89;100.00
18500;BME280;9379;52.134;11.576;2023-03-19T06:58:54;100747.66;;;12.46;100.00
18500;BME280;9379;52.134;11.576;2023-03-19T07:01:24;100757.09;;;12.31;100.00
18500;BME280;9379;52.134;11.576;2023-03-19T07:03:51;100743.53;;;12.05;100.00
18500;BME280;9379;52.134;11.576;2023-03-19T07:06:18;100765.22;;;12.30;100.00
18500;BME280;9379;52.134;11.576;2023-03-19T07:08:44;100754.81;;;12.36;100.00
18500;BME280;9379;52.134;11.576;2023-03-19T07:11:12;100757.97;;;12.69;100.00
18500;BME280;9379;52.134;11.576;2023-03-19T07:13:40;100770.16;;;12.81;100.00
18500;BME280;9379;52.134;11.576;2023-03-19T07:16:07;100768.81;;;12.57;100.00
18500;BME280;9379;52.134;11.576;2023-03-19T07:18:35;100771.56;;;12.19;100.00
18500;BME280;9379;52.134;11.576;2023-03-19T07:21:03;100761.09;;;12.54;100.00
18500;BME280;9379;52.134;11.576;2023-03-19T07:23:30;100742.78;;;12.22;100.00
18500;BME280;9379;52.134;11.576;2023-03-19T07:25:56;100768.31;;;12.15;100.00
18500;BME280;9379;52.134;11.576;2023-03-19T07:28:23;100771.81;;;12.25;100.00
18500;BME280;9379;52.134;11.576;2023-03-19T07:30:50;100773.16;;;12.49;100.00
18500;BME280;9379;52.134;11.576;2023-03-19T07:33:17;100774.06;;;12.30;100.00
18500;BME280;9379;52.134;11.576;2023-03-19T07:35:46;100780.78;;;12.44;100.00
18500;BME280;9379;52.134;11.576;2023-03-19T07:38:12;100782.94;;;13.24;100.00
18500;BME280;9379;52.134;11.576;2023-03-19T07:40:40;100791.72;;;12.97;100.00
18500;BME280;9379;52.134;11.576;2023-03-19T07:43:06;100791.06;;;12.85;100.00
18500;BME280;9379;52.134;11.576;2023-03-19T07:45:33;100789.84;;;13.07;99.35
18500;BME280;9379;52.134;11.576;2023-03-19T07:48:00;100780.94;;;13.26;100.00
18500;BME280;9379;52.134;11.576;2023-03-19T07:50:28;100779.06;;;13.36;99.69
18500;BME280;9379;52.134;11.576;2023-03-19T07:52:56;100787.00;;;13.19;99.63
18500;BME280;9379;52.134;11.576;2023-03-19T07:55:24;100782.72;;;13.35;99.58
18500;BME280;9379;52.134;11.576;2023-03-19T07:57:51;100778.13;;;13.73;98.49
18500;BME280;9379;52.134;11.576;2023-03-19T08:00:18;100782.50;;;13.92;97.89
18500;BME280;9379;52.134;11.576;2023-03-19T08:02:45;100782.41;;;13.21;98.11
18500;BME280;9379;52.134;11.576;2023-03-19T08:05:12;100789.47;;;12.93;100.00
18500;BME280;9379;52.134;11.576;2023-03-19T08:07:39;100792.47;;;13.17;100.00
18500;BME280;9379;52.134;11.576;2023-03-19T08:10:08;100788.28;;;13.14;100.00
18500;BME280;9379;52.134;11.576;2023-03-19T08:12:35;100793.91;;;13.11;100.00
18500;BME280;9379;52.134;11.576;2023-03-19T08:15:06;100796.34;;;12.95;100.00
18500;BME280;9379;52.134;11.576;2023-03-19T08:17:34;100791.91;;;13.51;100.00
18500;BME280;9379;52.134;11.576;2023-03-19T08:20:04;100781.22;;;13.51;98.78
18500;BME280;9379;52.134;11.576;2023-03-19T08:22:31;100793.06;;;13.11;100.00
18500;BME280;9379;52.134;11.576;2023-03-19T08:24:58;100797.75;;;13.36;100.00
18500;BME280;9379;52.134;11.576;2023-03-19T08:27:26;100795.03;;;13.46;100.00
18500;BME280;9379;52.134;11.576;2023-03-19T08:29:54;100788.59;;;13.39;100.00
18500;BME280;9379;52.134;11.576;2023-03-19T08:32:21;100790.28;;;13.85;100.00
18500;BME280;9379;52.134;11.576;2023-03-19T08:34:49;100798.00;;;14.06;99.52
18500;BME280;9379;52.134;11.576;2023-03-19T08:37:16;100785.19;;;14.71;96.69
18500;BME280;9379;52.134;11.576;2023-03-19T08:39:43;100798.06;;;14.50;95.55
18500;BME280;9379;52.134;11.576;2023-03-19T08:42:10;100804.50;;;14.91;94.73
18500;BME280;9379;52.134;11.576;2023-03-19T08:44:38;100805.25;;;14.49;96.38
18500;BME280;9379;52.134;11.576;2023-03-19T08:47:05;100805.69;;;14.63;94.42
18500;BME280;9379;52.134;11.576;2023-03-19T08:49:32;100798.13;;;14.40;94.49
18500;BME280;9379;52.134;11.576;2023-03-19T08:51:59;100806.69;;;14.62;95.16
18500;BME280;9379;52.134;11.576;2023-03-19T08:54:26;100802.72;;;15.00;93.17
18500;BME280;9379;52.134;11.576;2023-03-19T08:56:52;100817.41;;;14.70;93.44
18500;BME280;9379;52.134;11.576;2023-03-19T08:59:19;100815.03;;;14.84;94.10
18500;BME280;9379;52.134;11.576;2023-03-19T09:01:50;100813.78;;;14.71;94.42
18500;BME280;9379;52.134;11.576;2023-03-19T09:04:17;100816.84;;;14.58;93.63
18500;BME280;9379;52.134;11.576;2023-03-19T09:06:44;100820.88;;;15.14;93.33
18500;BME280;9379;52.134;11.576;2023-03-19T09:09:15;100826.75;;;14.92;94.31
18500;BME280;9379;52.134;11.576;2023-03-19T09:11:42;100829.41;;;14.83;92.54
18500;BME280;9379;52.134;11.576;2023-03-19T09:14:08;100832.34;;;14.98;92.04
18500;BME280;9379;52.134;11.576;2023-03-19T09:16:37;100831.91;;;15.45;90.36
18500;BME280;9379;52.134;11.576;2023-03-19T09:19:05;100831.13;;;15.27;89.61
18500;BME280;9379;52.134;11.576;2023-03-19T09:21:32;100834.19;;;14.98;92.27
18500;BME280;9379;52.134;11.576;2023-03-19T09:23:59;100841.03;;;15.00;92.67
18500;BME280;9379;52.134;11.576;2023-03-19T09:26:26;100842.28;;;15.40;89.14
18500;BME280;9379;52.134;11.576;2023-03-19T09:28:53;100853.53;;;14.92;90.98
18500;BME280;9379;52.134;11.576;2023-03-19T09:31:20;100848.16;;;14.92;92.70
18500;BME280;9379;52.134;11.576;2023-03-19T09:33:48;100848.34;;;14.90;91.63
18500;BME280;9379;52.134;11.576;2023-03-19T09:36:16;100860.16;;;15.05;90.69
18500;BME280;9379;52.134;11.576;2023-03-19T09:38:43;100850.81;;;15.43;89.62
18500;BME280;9379;52.134;11.576;2023-03-19T09:41:16;100862.38;;;14.92;91.88
18500;BME280;9379;52.134;11.576;2023-03-19T09:43:58;100850.47;;;15.12;90.85
18500;BME280;9379;52.134;11.576;2023-03-19T09:46:31;100844.25;;;15.64;89.57
18500;BME280;9379;52.134;11.576;2023-03-19T09:49:03;100850.03;;;15.25;89.33
18500;BME280;9379;52.134;11.576;2023-03-19T09:51:39;100845.25;;;15.71;89.02
18500;BME280;9379;52.134;11.576;2023-03-19T09:54:25;100848.59;;;15.73;86.84
18500;BME280;9379;52.134;11.576;2023-03-19T09:56:53;100845.16;;;15.97;85.04
18500;BME280;9379;52.134;11.576;2023-03-19T09:59:21;100837.31;;;16.52;83.86
18500;BME280;9379;52.134;11.576;2023-03-19T10:01:53;100841.91;;;16.68;83.98
18500;BME280;9379;52.134;11.576;2023-03-19T10:04:39;100839.34;;;16.75;82.69
18500;BME280;9379;52.134;11.576;2023-03-19T10:07:20;100843.03;;;16.57;82.37
18500;BME280;9379;52.134;11.576;2023-03-19T10:10:01;100846.19;;;16.28;85.11
18500;BME280;9379;52.134;11.576;2023-03-19T10:12:42;100832.78;;;16.04;83.84
18500;BME280;9379;52.134;11.576;2023-03-19T10:15:20;100835.00;;;16.74;81.64
18500;BME280;9379;52.134;11.576;2023-03-19T10:17:54;100821.56;;;16.57;82.95
18500;BME280;9379;52.134;11.576;2023-03-19T10:20:33;100818.19;;;16.55;84.25
18500;BME280;9379;52.134;11.576;2023-03-19T10:23:13;100827.13;;;16.80;84.36
18500;BME280;9379;52.134;11.576;2023-03-19T10:25:46;100833.16;;;16.82;83.39
18500;BME280;9379;52.134;11.576;2023-03-19T10:28:15;100832.28;;;16.98;82.38
18500;BME280;9379;52.134;11.576;2023-03-19T10:30:49;100824.25;;;16.57;84.27
18500;BME280;9379;52.134;11.576;2023-03-19T10:33:23;100824.56;;;16.95;84.46
18500;BME280;9379;52.134;11.576;2023-03-19T10:35:56;100816.59;;;17.26;81.97
18500;BME280;9379;52.134;11.576;2023-03-19T10:38:26;100797.34;;;17.14;81.87
18500;BME280;9379;52.134;11.576;2023-03-19T10:41:04;100801.19;;;17.12;81.64
18500;BME280;9379;52.134;11.576;2023-03-19T10:43:38;100806.97;;;16.84;81.24
18500;BME280;9379;52.134;11.576;2023-03-19T10:46:11;100809.75;;;17.07;80.69
18500;BME280;9379;52.134;11.576;2023-03-19T10:48:42;100798.56;;;16.63;82.70
18500;BME280;9379;52.134;11.576;2023-03-19T10:51:13;100805.13;;;16.85;81.25
18500;BME280;9379;52.134;11.576;2023-03-19T10:53:42;100800.50;;;17.10;81.36
18500;BME280;9379;52.134;11.576;2023-03-19T10:56:17;100805.06;;;17.01;81.42
18500;BME280;9379;52.134;11.576;2023-03-19T10:58:56;100800.56;;;16.94;80.04
18500;BME280;9379;52.134;11.576;2023-03-19T11:01:33;100799.56;;;17.03;81.39
18500;BME280;9379;52.134;11.576;2023-03-19T11:04:01;100810.13;;;16.96;80.75
18500;BME280;9379;52.134;11.576;2023-03-19T11:06:31;100798.91;;;16.76;81.07
18500;BME280;9379;52.134;11.576;2023-03-19T11:09:02;100802.38;;;17.01;81.46
18500;BME280;9379;52.134;11.576;2023-03-19T11:11:42;100800.56;;;16.94;81.80
18500;BME280;9379;52.134;11.576;2023-03-19T11:14:14;100801.59;;;16.92;81.38
18500;BME280;9379;52.134;11.576;2023-03-19T11:16:48;100797.59;;;16.72;80.29
18500;BME280;9379;52.134;11.576;2023-03-19T11:19:19;100809.59;;;17.01;81.36
18500;BME280;9379;52.134;11.576;2023-03-19T11:21:55;100807.97;;;16.91;80.71
18500;BME280;9379;52.134;11.576;2023-03-19T11:24:27;100799.44;;;16.80;80.77
18500;BME280;9379;52.134;11.576;2023-03-19T11:26:56;100798.50;;;17.12;79.70
18500;BME280;9379;52.134;11.576;2023-03-19T11:29:25;100801.22;;;17.43;80.21
18500;BME280;9379;52.134;11.576;2023-03-19T11:32:00;100788.34;;;17.38;78.93
18500;BME280;9379;52.134;11.576;2023-03-19T11:34:35;100793.69;;;17.77;78.38
18500;BME280;9379;52.134;11.576;2023-03-19T11:37:13;100792.03;;;17.99;78.90
18500;BME280;9379;52.134;11.576;2023-03-19T11:39:49;100784.75;;;17.85;78.52
18500;BME280;9379;52.134;11.576;2023-03-19T11:42:33;100780.22;;;17.86;76.56
18500;BME280;9379;52.134;11.576;2023-03-19T11:45:10;100776.63;;;17.62;77.93
18500;BME280;9379;52.134;11.576;2023-03-19T11:47:46;100774.88;;;17.77;77.79
18500;BME280;9379;52.134;11.576;2023-03-19T11:50:24;100783.19;;;18.14;75.95
18500;BME280;9379;52.134;11.576;2023-03-19T11:53:13;100778.13;;;18.19;77.93
18500;BME280;9379;52.134;11.576;2023-03-19T11:55:52;100775.44;;;17.96;79.29
18500;BME280;9379;52.134;11.576;2023-03-19T11:58:33;100788.84;;;17.73;78.73
18500;BME280;9379;52.134;11.576;2023-03-19T12:01:10;100784.31;;;18.42;76.59
18500;BME280;9379;52.134;11.576;2023-03-19T12:03:56;100787.03;;;18.19;75.73
18500;BME280;9379;52.134;11.576;2023-03-19T12:06:37;100783.59;;;17.79;78.39
18500;BME280;9379;52.134;11.576;2023-03-19T12:09:18;100781.25;;;18.45;78.17
18500;BME280;9379;52.134;11.576;2023-03-19T12:11:57;100762.97;;;18.55;76.26
18500;BME280;9379;52.134;11.576;2023-03-19T12:14:36;100763.56;;;19.10;73.86
18500;BME280;9379;52.134;11.576;2023-03-19T12:17:19;100777.44;;;19.07;73.37
18500;BME280;9379;52.134;11.576;2023-03-19T12:19:59;100766.66;;;19.07;74.62
18500;BME280;9379;52.134;11.576;2023-03-19T12:22:41;100761.44;;;19.35;73.27
18500;BME280;9379;52.134;11.576;2023-03-19T12:25:22;100778.66;;;19.04;75.42
18500;BME280;9379;52.134;11.576;2023-03-19T12:27:54;100773.16;;;18.30;75.61
18500;BME280;9379;52.134;11.576;2023-03-19T12:30:31;100769.28;;;18.62;77.55
18500;BME280;9379;52.134;11.576;2023-03-19T12:33:08;100761.34;;;18.84;76.09
18500;BME280;9379;52.134;11.576;2023-03-19T12:35:37;100761.47;;;18.76;74.90
18500;BME280;9379;52.134;11.576;2023-03-19T12:38:11;100770.34;;;19.20;73.08
18500;BME280;9379;52.134;11.576;2023-03-19T12:40:42;100765.81;;;19.36;72.70
18500;BME280;9379;52.134;11.576;2023-03-19T12:43:17;100766.56;;;18.48;73.95
18500;BME280;9379;52.134;11.576;2023-03-19T12:45:46;100762.66;;;19.03;72.25
18500;BME280;9379;52.134;11.576;2023-03-19T12:48:19;100752.44;;;19.13;72.47
18500;BME280;9379;52.134;11.576;2023-03-19T12:50:50;100754.97;;;19.00;73.70
18500;BME280;9379;52.134;11.576;2023-03-19T12:53:27;100753.13;;;18.62;75.40
18500;BME280;9379;52.134;11.576;2023-03-19T12:55:57;100759.53;;;18.99;75.05